Time;durP1;ratioP1;P1;durP2;ratioP2;P2;SDS_P1;SDS_P2;PMS_P1;PMS_P2;Temp;Humidity;BMP_temperature;BMP_pressure;BME280_temperature;BME280_humidity;BME280_pressure;Samples;Min_cycle;Max_cycle;Signal;HPM_P1;HPM_P2
2022/12/08 00:01:54;;;;;;;;;;;;;;;;;;5036999;28;19957;-77
2022/12/08 00:04:22;;;;;;;;;;;;;;;;;;5040227;28;19921;-79
2022/12/08 00:09:34;;;;;;;;;;;;;;;;;;5040571;28;19972;-77
2022/12/08 00:12:02;;;;;;;;;;;;;;;;;;5037337;28;20027;-82
2022/12/08 00:14:29;;;;;;;;;;;;;;;;;;5022739;28;19929;-79
2022/12/08 00:16:56;;;;;;;;;;;;;;;;;;5029155;28;19952;-78
2022/12/08 00:19:24;;;;;;;;;;;;;;;;;;5038270;28;19948;-79
2022/12/08 00:21:51;;;;;;;;;;;;;;;;;;5033118;28;20032;-79
2022/12/08 00:24:18;;;;;;;;;;;;;;;;;;5029198;28;19960;-79
2022/12/08 00:26:45;;;;;;;;;;;;;;;;;;5029068;28;19933;-78
2022/12/08 00:29:12;;;;;;;;;;;;;;;;;;5029342;28;19960;-78
2022/12/08 00:31:38;;;;;;;;;;;;;;;;;;5029713;28;19940;-79
2022/12/08 00:34:05;;;;;;;;;;;;;;;;;;5022849;28;19925;-79
2022/12/08 00:36:33;;;;;;;;;;;;;;;;;;5016791;28;19961;-80
2022/12/08 00:38:59;;;;;;;;;;;;;;;;;;5015965;28;19993;-79
2022/12/08 00:44:07;;;;;;;;;;;;;;;;;;5015881;28;19925;-79
2022/12/08 00:46:34;;;;;;;;;;;;;;;;;;5016357;28;20016;-78
2022/12/08 00:49:01;;;;;;;;;;;;;;;;;;5016761;28;20035;-77
2022/12/08 00:51:27;;;;;;;;;;;;;;;;;;5016327;28;20023;-77
2022/12/08 00:53:55;;;;;;;;;;;;;;;;;;5016322;28;20071;-78
2022/12/08 00:56:21;;;;;;;;;;;;;;;;;;5015959;28;19925;-79
2022/12/08 00:58:48;;;;;;;;;;;;;;;;;;5016423;28;19972;-79
2022/12/08 01:01:14;;;;;;;;;;;;;;;;;;5015905;28;19926;-78
2022/12/08 01:03:41;;;;;;;;;;;;;;;;;;5015874;28;19977;-78
2022/12/08 01:06:08;;;;;;;;;;;;;;;;;;5016395;28;20013;-78
2022/12/08 01:08:36;;;;;;;;;;;;;;;;;;5015696;28;20004;-78
2022/12/08 01:11:04;;;;;;;;;;;;;;;;;;5016250;28;19976;-79
2022/12/08 01:13:30;;;;;;;;;;;;;;;;;;5016032;28;20016;-79
2022/12/08 01:15:57;;;;;;;;;;;;;;;;;;5017841;28;20020;-78
2022/12/08 01:18:23;;;;;;;;;;;;;;;;;;5017754;28;19930;-78
2022/12/08 01:20:50;;;;;;;;;;;;;;;;;;5017557;28;19925;-79
2022/12/08 01:23:16;;;;;;;;;;;;;;;;;;5016816;28;20016;-78
2022/12/08 01:25:43;;;;;;;;;;;;;;;;;;5017724;28;20024;-80
2022/12/08 01:28:11;;;;;;;;;;;;;;;;;;5016362;28;19977;-78
2022/12/08 01:30:38;;;;;;;;;;;;;;;;;;5017919;28;19926;-79
2022/12/08 01:33:04;;;;;;;;;;;;;;;;;;5017888;28;20016;-78
2022/12/08 01:35:30;;;;;;;;;;;;;;;;;;5016303;28;20013;-78
2022/12/08 01:37:57;;;;;;;;;;;;;;;;;;5015667;28;20371;-77
2022/12/08 01:40:23;;;;;;;;;;;;;;;;;;5016662;28;19961;-77
2022/12/08 01:42:51;;;;;;;;;;;;;;;;;;5016506;28;20032;-78
2022/12/08 01:45:22;;;;;;;;;;;;;;;;;;5016974;28;19932;-78
2022/12/08 01:47:50;;;;;;;;;;;;;;;;;;5016164;28;19964;-77
2022/12/08 01:50:18;;;;;;;;;;;;;;;;;;5016141;28;20013;-78
2022/12/08 01:52:47;;;;;;;;;;;;;;;;;;5017100;28;19933;-78
2022/12/08 01:55:17;;;;;;;;;;;;;;;;;;5022785;28;19968;-78
2022/12/08 01:57:46;;;;;;;;;;;;;;;;;;5031344;28;19929;-78
2022/12/08 02:00:14;;;;;;;;;;;;;;;;;;5033069;28;19968;-79
2022/12/08 02:02:46;;;;;;;;;;;;;;;;;;5030747;28;19925;-79
2022/12/08 02:05:13;;;;;;;;;;;;;;;;;;5022181;28;19972;-79
2022/12/08 02:07:39;;;;;;;;;;;;;;;;;;5022499;28;19987;-79
2022/12/08 02:10:06;;;;;;;;;;;;;;;;;;5021777;28;20020;-78
2022/12/08 02:12:33;;;;;;;;;;;;;;;;;;5020103;28;19965;-78
2022/12/08 02:15:00;;;;;;;;;;;;;;;;;;5021078;28;19933;-78
2022/12/08 02:17:32;;;;;;;;;;;;;;;;;;5020575;28;20016;-78
2022/12/08 02:20:21;;;;;;;;;;;;;;;;;;5021286;28;19937;-79
2022/12/08 02:22:51;;;;;;;;;;;;;;;;;;5022306;28;19997;-79
2022/12/08 02:25:20;;;;;;;;;;;;;;;;;;5021242;28;20305;-79
2022/12/08 02:27:50;;;;;;;;;;;;;;;;;;5022505;28;19964;-79
2022/12/08 02:30:19;;;;;;;;;;;;;;;;;;5022438;28;19987;-79
2022/12/08 02:32:57;;;;;;;;;;;;;;;;;;5021266;28;19925;-79
2022/12/08 02:35:27;;;;;;;;;;;;;;;;;;5021590;28;19993;-79
2022/12/08 02:37:57;;;;;;;;;;;;;;;;;;5022194;28;19957;-79
2022/12/08 02:40:26;;;;;;;;;;;;;;;;;;5021089;28;20020;-79
2022/12/08 02:42:55;;;;;;;;;;;;;;;;;;5017789;28;19968;-79
2022/12/08 02:45:24;;;;;;;;;;;;;;;;;;5014434;28;19965;-78
2022/12/08 02:47:51;;;;;;;;;;;;;;;;;;5014832;28;19965;-78
2022/12/08 02:50:18;;;;;;;;;;;;;;;;;;5014785;28;20344;-78
2022/12/08 02:52:46;;;;;;;;;;;;;;;;;;5014832;28;19934;-78
2022/12/08 02:55:16;;;;;;;;;;;;;;;;;;5014601;28;20447;-78
2022/12/08 02:57:49;;;;;;;;;;;;;;;;;;5032916;23;20072;-76
2022/12/08 03:00:17;;;;;;;;;;;;;;;;;;5048849;28;20041;-75
2022/12/08 03:02:49;;;;;;;;;;;;;;;;;;5048616;28;19932;-76
2022/12/08 03:05:22;;;;;;;;;;;;;;;;;;5048880;28;20039;-75
2022/12/08 03:08:00;;;;;;;;;;;;;;;;;;5040425;28;19951;-76
2022/12/08 03:10:29;;;;;;;;;;;;;;;;;;5028626;28;20336;-76
2022/12/08 03:12:58;;;;;;;;;;;;;;;;;;5028966;28;19925;-76
2022/12/08 03:15:24;;;;;;;;;;;;;;;;;;5028518;28;21514;-76
2022/12/08 03:17:53;;;;;;;;;;;;;;;;;;5028200;28;19931;-76
2022/12/08 03:20:21;;;;;;;;;;;;;;;;;;5028766;28;19932;-76
2022/12/08 03:22:48;;;;;;;;;;;;;;;;;;5025530;28;19933;-76
2022/12/08 03:25:19;;;;;;;;;;;;;;;;;;5028527;28;20392;-76
2022/12/08 03:27:45;;;;;;;;;;;;;;;;;;5028348;28;19935;-76
2022/12/08 03:30:12;;;;;;;;;;;;;;;;;;5028181;28;19931;-76
2022/12/08 03:32:41;;;;;;;;;;;;;;;;;;5027976;28;19929;-76
2022/12/08 03:35:09;;;;;;;;;;;;;;;;;;5028492;28;20010;-75
2022/12/08 03:37:36;;;;;;;;;;;;;;;;;;5030629;28;19969;-76
2022/12/08 03:40:02;;;;;;;;;;;;;;;;;;5032757;28;19960;-76
2022/12/08 03:42:30;;;;;;;;;;;;;;;;;;5031439;28;19941;-76
2022/12/08 03:44:57;;;;;;;;;;;;;;;;;;5031729;28;20023;-76
2022/12/08 03:47:23;;;;;;;;;;;;;;;;;;5032019;28;20299;-76
2022/12/08 03:49:49;;;;;;;;;;;;;;;;;;5031857;28;19929;-76
2022/12/08 03:52:16;;;;;;;;;;;;;;;;;;5032033;28;19933;-76
2022/12/08 03:54:42;;;;;;;;;;;;;;;;;;5032418;28;20035;-76
2022/12/08 03:57:09;;;;;;;;;;;;;;;;;;5031840;28;20020;-77
2022/12/08 03:59:37;;;;;;;;;;;;;;;;;;5032287;28;20016;-76
2022/12/08 04:02:03;;;;;;;;;;;;;;;;;;5032070;28;20016;-76
2022/12/08 04:04:30;;;;;;;;;;;;;;;;;;5031253;28;20019;-76
2022/12/08 04:06:56;;;;;;;;;;;;;;;;;;5032202;28;19968;-76
2022/12/08 04:09:23;;;;;;;;;;;;;;;;;;5031739;28;19924;-75
2022/12/08 04:11:49;;;;;;;;;;;;;;;;;;5031808;28;20026;-76
2022/12/08 04:14:16;;;;;;;;;;;;;;;;;;5031413;28;19929;-76
2022/12/08 04:16:43;;;;;;;;;;;;;;;;;;5032058;28;19967;-75
2022/12/08 04:19:10;;;;;;;;;;;;;;;;;;5031834;28;20452;-74
2022/12/08 04:21:36;;;;;;;;;;;;;;;;;;5031956;28;20012;-75
2022/12/08 04:24:03;;;;;;;;;;;;;;;;;;5032190;28;19977;-75
2022/12/08 04:26:29;;;;;;;;;;;;;;;;;;5032334;28;19932;-75
2022/12/08 04:28:56;;;;;;;;;;;;;;;;;;5031821;28;19929;-74
2022/12/08 04:31:22;;;;;;;;;;;;;;;;;;5031859;28;19972;-76
2022/12/08 04:33:50;;;;;;;;;;;;;;;;;;5031701;28;20063;-76
2022/12/08 04:36:17;;;;;;;;;;;;;;;;;;5031654;28;19933;-77
2022/12/08 04:38:43;;;;;;;;;;;;;;;;;;5031514;28;19983;-76
2022/12/08 04:41:10;;;;;;;;;;;;;;;;;;5031007;28;20596;-76
2022/12/08 04:43:36;;;;;;;;;;;;;;;;;;5031095;28;19925;-76
2022/12/08 04:46:05;;;;;;;;;;;;;;;;;;5031014;28;19932;-75
2022/12/08 04:48:32;;;;;;;;;;;;;;;;;;5030199;28;19925;-76
2022/12/08 04:51:00;;;;;;;;;;;;;;;;;;5030921;28;20031;-76
2022/12/08 04:53:26;;;;;;;;;;;;;;;;;;5031225;28;19925;-76
2022/12/08 04:55:53;;;;;;;;;;;;;;;;;;5031180;28;19935;-76
2022/12/08 04:58:19;;;;;;;;;;;;;;;;;;5030907;28;20020;-76
2022/12/08 05:00:47;;;;;;;;;;;;;;;;;;5030340;28;20052;-75
2022/12/08 05:03:13;;;;;;;;;;;;;;;;;;5030968;28;20024;-76
2022/12/08 05:05:40;;;;;;;;;;;;;;;;;;5030845;28;19925;-75
2022/12/08 05:08:08;;;;;;;;;;;;;;;;;;5030736;28;19958;-76
2022/12/08 05:10:35;;;;;;;;;;;;;;;;;;5030146;28;20340;-75
2022/12/08 05:13:02;;;;;;;;;;;;;;;;;;5030486;28;20044;-75
2022/12/08 05:15:28;;;;;;;;;;;;;;;;;;5030815;28;19940;-75
2022/12/08 05:17:55;;;;;;;;;;;;;;;;;;5030046;28;19932;-76
2022/12/08 05:20:21;;;;;;;;;;;;;;;;;;5030799;28;19925;-75
2022/12/08 05:22:48;;;;;;;;;;;;;;;;;;5029744;28;20019;-75
2022/12/08 05:25:16;;;;;;;;;;;;;;;;;;5030153;28;20600;-76
2022/12/08 05:27:42;;;;;;;;;;;;;;;;;;5029990;28;19925;-76
2022/12/08 05:30:09;;;;;;;;;;;;;;;;;;5030512;28;20311;-75
2022/12/08 05:32:35;;;;;;;;;;;;;;;;;;5030590;28;19987;-76
2022/12/08 05:35:02;;;;;;;;;;;;;;;;;;5031115;28;19925;-76
2022/12/08 05:37:28;;;;;;;;;;;;;;;;;;5030839;28;20016;-75
2022/12/08 05:39:55;;;;;;;;;;;;;;;;;;5030566;28;19935;-75
2022/12/08 05:42:22;;;;;;;;;;;;;;;;;;5029782;28;20290;-75
2022/12/08 05:44:49;;;;;;;;;;;;;;;;;;5030311;28;19980;-75
2022/12/08 05:47:15;;;;;;;;;;;;;;;;;;5030061;28;20402;-75
2022/12/08 05:49:42;;;;;;;;;;;;;;;;;;5030077;28;19925;-74
2022/12/08 05:52:08;;;;;;;;;;;;;;;;;;5030483;28;20003;-74
2022/12/08 05:54:35;;;;;;;;;;;;;;;;;;5030205;28;20016;-74
2022/12/08 05:57:01;;;;;;;;;;;;;;;;;;5030790;28;20014;-73
2022/12/08 05:59:29;;;;;;;;;;;;;;;;;;5030556;28;19979;-75
2022/12/08 06:01:55;;;;;;;;;;;;;;;;;;5033379;28;19975;-74
2022/12/08 06:04:22;;;;;;;;;;;;;;;;;;5036578;28;19933;-74
2022/12/08 06:06:49;;;;;;;;;;;;;;;;;;5035858;28;21579;-74
2022/12/08 06:09:16;;;;;;;;;;;;;;;;;;5032525;28;19992;-75
2022/12/08 06:11:42;;;;;;;;;;;;;;;;;;5030515;28;20043;-75
2022/12/08 06:14:10;;;;;;;;;;;;;;;;;;5029761;28;19937;-75
2022/12/08 06:16:38;;;;;;;;;;;;;;;;;;5029804;28;20323;-75
2022/12/08 06:19:05;;;;;;;;;;;;;;;;;;5029536;28;20007;-76
2022/12/08 06:21:31;;;;;;;;;;;;;;;;;;5029451;28;20307;-77
2022/12/08 06:23:58;;;;;;;;;;;;;;;;;;5030240;28;19983;-77
2022/12/08 06:26:25;;;;;;;;;;;;;;;;;;5029436;28;20323;-75
2022/12/08 06:28:51;;;;;;;;;;;;;;;;;;5031578;28;19964;-76
2022/12/08 06:31:19;;;;;;;;;;;;;;;;;;5031499;28;19960;-75
2022/12/08 06:33:47;;;;;;;;;;;;;;;;;;5031094;28;20724;-76
2022/12/08 06:36:14;;;;;;;;;;;;;;;;;;5029585;28;19971;-76
2022/12/08 06:38:41;;;;;;;;;;;;;;;;;;5028705;28;20432;-74
2022/12/08 06:41:08;;;;;;;;;;;;;;;;;;5029048;28;20019;-76
2022/12/08 06:43:34;;;;;;;;;;;;;;;;;;5029196;28;20028;-75
2022/12/08 06:46:01;;;;;;;;;;;;;;;;;;5029073;28;20648;-76
2022/12/08 06:48:27;;;;;;;;;;;;;;;;;;5029068;28;20560;-76
2022/12/08 06:50:55;;;;;;;;;;;;;;;;;;5028260;28;20024;-75
2022/12/08 06:53:21;;;;;;;;;;;;;;;;;;5029035;28;19964;-75
2022/12/08 06:55:51;;;;;;;;;;;;;;;;;;5028726;28;20399;-77
2022/12/08 06:58:18;;;;;;;;;;;;;;;;;;5029148;28;20005;-75
2022/12/08 07:00:44;;;;;;;;;;;;;;;;;;5028642;28;20418;-75
2022/12/08 07:03:11;;;;;;;;;;;;;;;;;;5032851;28;19989;-75
2022/12/08 07:05:38;;;;;;;;;;;;;;;;;;5042369;28;19940;-75
2022/12/08 07:08:07;;;;;;;;;;;;;;;;;;5035867;28;19944;-76
2022/12/08 07:10:34;;;;;;;;;;;;;;;;;;5029154;28;19964;-75
2022/12/08 07:13:00;;;;;;;;;;;;;;;;;;5032021;28;20016;-75
2022/12/08 07:15:26;;;;;;;;;;;;;;;;;;5033205;28;20369;-76
2022/12/08 07:17:53;;;;;;;;;;;;;;;;;;5034619;28;20027;-75
2022/12/08 07:20:20;;;;;;;;;;;;;;;;;;5033101;28;19929;-76
2022/12/08 07:22:50;;;;;;;;;;;;;;;;;;5033636;28;20012;-75
2022/12/08 07:25:18;;;;;;;;;;;;;;;;;;5033593;28;19944;-75
2022/12/08 07:27:44;;;;;;;;;;;;;;;;;;5036539;28;19932;-76
2022/12/08 07:30:11;;;;;;;;;;;;;;;;;;5035764;28;19968;-75
2022/12/08 07:32:38;;;;;;;;;;;;;;;;;;5033672;28;19985;-74
2022/12/08 07:35:05;;;;;;;;;;;;;;;;;;5033427;28;19940;-75
2022/12/08 07:37:32;;;;;;;;;;;;;;;;;;5033289;28;19939;-75
2022/12/08 07:39:59;;;;;;;;;;;;;;;;;;5032393;28;20343;-75
2022/12/08 07:42:26;;;;;;;;;;;;;;;;;;5035420;28;19925;-75
2022/12/08 07:44:53;;;;;;;;;;;;;;;;;;5035648;28;19955;-76
2022/12/08 07:47:19;;;;;;;;;;;;;;;;;;5035319;28;19948;-75
2022/12/08 07:49:46;;;;;;;;;;;;;;;;;;5035884;28;19925;-75
2022/12/08 07:52:12;;;;;;;;;;;;;;;;;;5035379;28;19960;-76
2022/12/08 07:54:39;;;;;;;;;;;;;;;;;;5037004;28;19963;-77
2022/12/08 07:57:05;;;;;;;;;;;;;;;;;;5038672;28;19975;-78
2022/12/08 07:59:33;;;;;;;;;;;;;;;;;;5039204;28;20001;-79
2022/12/08 08:02:01;;;;;;;;;;;;;;;;;;5030426;28;19932;-78
2022/12/08 08:04:27;;;;;;;;;;;;;;;;;;5029219;28;20034;-78
2022/12/08 08:06:54;;;;;;;;;;;;;;;;;;5031814;28;20074;-78
2022/12/08 08:09:20;;;;;;;;;;;;;;;;;;5032471;28;20579;-79
2022/12/08 08:11:47;;;;;;;;;;;;;;;;;;5017960;28;19976;-79
2022/12/08 08:14:13;;;;;;;;;;;;;;;;;;5036088;28;19925;-80
2022/12/08 08:16:45;;;;;;;;;;;;;;;;;;5038889;28;19988;-80
2022/12/08 08:19:11;;;;;;;;;;;;;;;;;;5037084;28;19979;-79
2022/12/08 08:21:38;;;;;;;;;;;;;;;;;;5036984;28;19979;-79
2022/12/08 08:24:05;;;;;;;;;;;;;;;;;;5035928;28;19975;-78
2022/12/08 08:26:31;;;;;;;;;;;;;;;;;;5037219;28;20020;-77
2022/12/08 08:28:58;;;;;;;;;;;;;;;;;;5037470;28;20403;-79
2022/12/08 08:31:24;;;;;;;;;;;;;;;;;;5038173;28;19925;-78
2022/12/08 08:33:52;;;;;;;;;;;;;;;;;;5038806;28;19968;-79
2022/12/08 08:36:20;;;;;;;;;;;;;;;;;;5037784;28;19973;-80
2022/12/08 08:38:47;;;;;;;;;;;;;;;;;;5037723;28;19925;-79
2022/12/08 08:41:13;;;;;;;;;;;;;;;;;;5037870;28;19964;-79
2022/12/08 08:43:40;;;;;;;;;;;;;;;;;;5037224;28;19973;-78
2022/12/08 08:46:07;;;;;;;;;;;;;;;;;;5037610;28;20021;-79
2022/12/08 08:48:34;;;;;;;;;;;;;;;;;;5024283;28;20322;-79
2022/12/08 08:51:07;;;;;;;;;;;;;;;;;;5035710;28;19929;-79
2022/12/08 08:53:34;;;;;;;;;;;;;;;;;;5036673;28;20016;-79
2022/12/08 08:56:00;;;;;;;;;;;;;;;;;;5036297;28;20013;-79
2022/12/08 08:58:27;;;;;;;;;;;;;;;;;;5036263;28;19925;-80
2022/12/08 09:00:53;;;;;;;;;;;;;;;;;;5036860;28;19971;-77
2022/12/08 09:03:20;;;;;;;;;;;;;;;;;;5064776;22;19931;-81
2022/12/08 09:05:46;;;;;;;;;;;;;;;;;;5064802;28;19983;-79
2022/12/08 09:08:14;;;;;;;;;;;;;;;;;;5063282;28;19924;-80
2022/12/08 09:10:41;;;;;;;;;;;;;;;;;;5064069;28;19951;-81
2022/12/08 09:13:07;;;;;;;;;;;;;;;;;;5062817;28;19947;-80
2022/12/08 09:15:34;;;;;;;;;;;;;;;;;;5045642;28;19947;-81
2022/12/08 09:18:00;;;;;;;;;;;;;;;;;;5053046;28;19936;-82
2022/12/08 09:20:27;;;;;;;;;;;;;;;;;;5056686;28;19944;-82
2022/12/08 09:22:53;;;;;;;;;;;;;;;;;;5056667;28;19947;-81
2022/12/08 09:25:21;;;;;;;;;;;;;;;;;;5051143;28;19925;-79
2022/12/08 09:27:47;;;;;;;;;;;;;;;;;;5056311;28;19932;-80
2022/12/08 09:30:14;;;;;;;;;;;;;;;;;;5055343;28;19926;-80
2022/12/08 09:32:41;;;;;;;;;;;;;;;;;;5046964;28;19948;-79
2022/12/08 09:35:08;;;;;;;;;;;;;;;;;;5047612;28;19994;-80
2022/12/08 09:37:40;;;;;;;;;;;;;;;;;;5057749;28;20043;-79
2022/12/08 09:40:08;;;;;;;;;;;;;;;;;;5068192;28;19925;-80
2022/12/08 09:42:42;;;;;;;;;;;;;;;;;;5056237;28;19966;-80
2022/12/08 09:45:09;;;;;;;;;;;;;;;;;;5058593;28;19982;-79
2022/12/08 09:47:39;;;;;;;;;;;;;;;;;;5076747;28;20120;-80
2022/12/08 09:50:10;;;;;;;;;;;;;;;;;;5073022;28;20018;-80
2022/12/08 09:52:40;;;;;;;;;;;;;;;;;;5067204;28;20371;-80
2022/12/08 09:55:12;;;;;;;;;;;;;;;;;;5064508;28;19936;-79
2022/12/08 09:57:40;;;;;;;;;;;;;;;;;;5063285;28;19979;-80
2022/12/08 10:00:07;;;;;;;;;;;;;;;;;;5058522;28;19940;-80
2022/12/08 10:02:33;;;;;;;;;;;;;;;;;;5050731;28;19926;-79
2022/12/08 10:05:01;;;;;;;;;;;;;;;;;;5053504;28;20385;-80
2022/12/08 10:07:32;;;;;;;;;;;;;;;;;;5065022;28;19925;-79
2022/12/08 10:10:02;;;;;;;;;;;;;;;;;;5061653;28;19952;-79
2022/12/08 10:12:33;;;;;;;;;;;;;;;;;;5063298;28;19990;-78
2022/12/08 10:15:03;;;;;;;;;;;;;;;;;;5058625;28;19949;-80
2022/12/08 10:17:34;;;;;;;;;;;;;;;;;;5042878;28;20016;-83
2022/12/08 10:20:01;;;;;;;;;;;;;;;;;;5043111;28;19926;-81
2022/12/08 10:22:32;;;;;;;;;;;;;;;;;;5060855;28;19932;-82
2022/12/08 10:25:00;;;;;;;;;;;;;;;;;;5059467;28;19974;-81
2022/12/08 10:27:26;;;;;;;;;;;;;;;;;;5042841;28;19929;-82
2022/12/08 10:29:53;;;;;;;;;;;;;;;;;;5049242;28;19976;-80
2022/12/08 10:32:22;;;;;;;;;;;;;;;;;;5049187;28;20116;-79
2022/12/08 10:34:59;;;;;;;;;;;;;;;;;;5061243;28;19925;-79
2022/12/08 10:37:25;;;;;;;;;;;;;;;;;;5068328;28;19960;-82
2022/12/08 10:39:59;;;;;;;;;;;;;;;;;;5070154;28;19972;-80
2022/12/08 10:42:28;;;;;;;;;;;;;;;;;;5070496;28;19925;-80
2022/12/08 10:44:58;;;;;;;;;;;;;;;;;;5060865;28;19948;-79
2022/12/08 10:47:27;;;;;;;;;;;;;;;;;;5045989;28;19964;-78
2022/12/08 10:50:07;;;;;;;;;;;;;;;;;;5059623;28;19925;-79
2022/12/08 10:52:37;;;;;;;;;;;;;;;;;;5045796;28;19925;-79
2022/12/08 10:55:13;;;;;;;;;;;;;;;;;;5047340;28;19925;-80
2022/12/08 10:57:39;;;;;;;;;;;;;;;;;;5051520;28;19925;-79
2022/12/08 11:00:07;;;;;;;;;;;;;;;;;;5061066;28;19924;-79
2022/12/08 11:02:34;;;;;;;;;;;;;;;;;;5066841;28;19975;-80
2022/12/08 11:05:01;;;;;;;;;;;;;;;;;;5052091;28;19925;-79
2022/12/08 11:07:28;;;;;;;;;;;;;;;;;;5068725;28;19925;-81
2022/12/08 11:09:57;;;;;;;;;;;;;;;;;;5049082;28;19952;-79
2022/12/08 11:12:26;;;;;;;;;;;;;;;;;;5051209;28;19936;-80
2022/12/08 11:14:57;;;;;;;;;;;;;;;;;;5050425;28;19925;-79
2022/12/08 11:17:25;;;;;;;;;;;;;;;;;;5048832;28;19929;-79
2022/12/08 11:19:56;;;;;;;;;;;;;;;;;;5059083;28;19929;-80
2022/12/08 11:22:24;;;;;;;;;;;;;;;;;;5060625;28;19925;-79
2022/12/08 11:24:56;;;;;;;;;;;;;;;;;;5052144;28;19924;-79
2022/12/08 11:27:23;;;;;;;;;;;;;;;;;;5059432;28;19925;-81
2022/12/08 11:29:50;;;;;;;;;;;;;;;;;;5046184;28;19936;-78
2022/12/08 11:32:16;;;;;;;;;;;;;;;;;;5059222;28;19925;-76
2022/12/08 11:34:45;;;;;;;;;;;;;;;;;;5051814;28;19967;-75
2022/12/08 11:37:18;;;;;;;;;;;;;;;;;;5056078;28;19971;-77
2022/12/08 11:39:48;;;;;;;;;;;;;;;;;;5051692;28;20280;-76
2022/12/08 11:42:16;;;;;;;;;;;;;;;;;;5055464;28;19964;-75
2022/12/08 11:44:46;;;;;;;;;;;;;;;;;;5055303;28;19964;-79
2022/12/08 11:47:14;;;;;;;;;;;;;;;;;;5037929;28;20538;-77
2022/12/08 11:49:41;;;;;;;;;;;;;;;;;;5040668;28;19936;-76
2022/12/08 11:52:12;;;;;;;;;;;;;;;;;;5040881;28;19944;-76
2022/12/08 11:54:44;;;;;;;;;;;;;;;;;;5036221;28;19929;-76
2022/12/08 11:57:14;;;;;;;;;;;;;;;;;;5042351;28;19925;-78
2022/12/08 11:59:43;;;;;;;;;;;;;;;;;;5038738;28;20327;-74
2022/12/08 12:02:13;;;;;;;;;;;;;;;;;;5038559;28;19925;-77
2022/12/08 12:04:43;;;;;;;;;;;;;;;;;;5049585;28;19973;-76
2022/12/08 12:07:40;;;;;;;;;;;;;;;;;;5057712;28;20303;-77
2022/12/08 12:10:15;;;;;;;;;;;;;;;;;;5036475;28;19925;-76
2022/12/08 12:12:51;;;;;;;;;;;;;;;;;;5036930;28;19932;-75
2022/12/08 12:15:32;;;;;;;;;;;;;;;;;;5035201;28;20024;-75
2022/12/08 12:18:01;;;;;;;;;;;;;;;;;;5033032;28;19975;-75
2022/12/08 12:20:30;;;;;;;;;;;;;;;;;;5035401;28;19925;-76
2022/12/08 12:22:59;;;;;;;;;;;;;;;;;;5035329;28;20052;-73
2022/12/08 12:25:27;;;;;;;;;;;;;;;;;;5033981;28;20552;-75
2022/12/08 12:27:57;;;;;;;;;;;;;;;;;;5033755;28;19925;-74
2022/12/08 12:30:25;;;;;;;;;;;;;;;;;;5035177;28;19952;-76
2022/12/08 12:32:53;;;;;;;;;;;;;;;;;;5038936;28;19931;-75
2022/12/08 12:35:21;;;;;;;;;;;;;;;;;;5056553;28;20399;-75
2022/12/08 12:37:48;;;;;;;;;;;;;;;;;;5056844;28;19925;-74
2022/12/08 12:40:17;;;;;;;;;;;;;;;;;;5057003;28;19925;-76
2022/12/08 12:42:47;;;;;;;;;;;;;;;;;;5064120;28;19928;-76
2022/12/08 12:45:25;;;;;;;;;;;;;;;;;;5048307;28;19932;-75
2022/12/08 12:47:52;;;;;;;;;;;;;;;;;;5065248;28;20175;-75
2022/12/08 12:50:34;;;;;;;;;;;;;;;;;;5069297;28;19936;-74
2022/12/08 12:53:00;;;;;;;;;;;;;;;;;;5066214;28;20387;-76
2022/12/08 12:55:45;;;;;;;;;;;;;;;;;;5056918;28;20159;-75
2022/12/08 12:58:39;;;;;;;;;;;;;;;;;;5026979;28;19976;-75
2022/12/08 13:01:24;;;;;;;;;;;;;;;;;;5022456;28;19925;-76
2022/12/08 13:04:02;;;;;;;;;;;;;;;;;;5048581;28;19932;-75
2022/12/08 13:06:33;;;;;;;;;;;;;;;;;;5048153;28;19967;-77
2022/12/08 13:09:00;;;;;;;;;;;;;;;;;;5053082;28;20589;-76
2022/12/08 13:11:26;;;;;;;;;;;;;;;;;;5037261;28;19932;-76
2022/12/08 13:13:55;;;;;;;;;;;;;;;;;;5041755;28;20035;-74
2022/12/08 13:16:24;;;;;;;;;;;;;;;;;;5052602;28;20019;-77
2022/12/08 13:18:52;;;;;;;;;;;;;;;;;;5042322;28;19948;-75
2022/12/08 13:21:21;;;;;;;;;;;;;;;;;;5032363;28;19936;-76
2022/12/08 13:23:48;;;;;;;;;;;;;;;;;;5036556;28;19975;-75
2022/12/08 13:26:16;;;;;;;;;;;;;;;;;;5031771;28;19925;-75
2022/12/08 13:29:02;;;;;;;;;;;;;;;;;;5035900;28;19968;-76
2022/12/08 13:31:36;;;;;;;;;;;;;;;;;;5031961;28;19929;-76
2022/12/08 13:34:05;;;;;;;;;;;;;;;;;;5032343;28;19925;-74
2022/12/08 13:36:33;;;;;;;;;;;;;;;;;;5033368;28;20388;-75
2022/12/08 13:39:01;;;;;;;;;;;;;;;;;;5032013;28;19975;-74
2022/12/08 13:41:31;;;;;;;;;;;;;;;;;;5031990;28;19975;-75
2022/12/08 13:44:00;;;;;;;;;;;;;;;;;;5032035;28;19972;-74
2022/12/08 13:46:31;;;;;;;;;;;;;;;;;;5035151;28;20063;-75
2022/12/08 13:49:10;;;;;;;;;;;;;;;;;;5035061;28;19976;-75
2022/12/08 13:51:40;;;;;;;;;;;;;;;;;;5034243;28;20019;-74
2022/12/08 13:54:08;;;;;;;;;;;;;;;;;;5032012;28;19987;-75
2022/12/08 13:56:36;;;;;;;;;;;;;;;;;;5040532;28;19924;-75
2022/12/08 13:59:07;;;;;;;;;;;;;;;;;;5051715;28;19924;-74
2022/12/08 14:01:38;;;;;;;;;;;;;;;;;;5052319;28;20395;-83
2022/12/08 14:04:13;;;;;;;;;;;;;;;;;;4988581;28;1806131;-75
2022/12/08 14:06:42;;;;;;;;;;;;;;;;;;5050829;28;19976;-74
2022/12/08 14:09:11;;;;;;;;;;;;;;;;;;5032622;28;19999;-75
2022/12/08 14:11:39;;;;;;;;;;;;;;;;;;5032026;28;19964;-75
2022/12/08 14:14:07;;;;;;;;;;;;;;;;;;5032917;28;19968;-76
2022/12/08 14:16:37;;;;;;;;;;;;;;;;;;5039110;28;19971;-75
2022/12/08 14:19:15;;;;;;;;;;;;;;;;;;5052107;28;20311;-73
2022/12/08 14:21:45;;;;;;;;;;;;;;;;;;5052059;28;19931;-75
2022/12/08 14:24:12;;;;;;;;;;;;;;;;;;5052632;28;20015;-74
2022/12/08 14:26:39;;;;;;;;;;;;;;;;;;5045741;28;20019;-75
2022/12/08 14:29:07;;;;;;;;;;;;;;;;;;5032472;28;19968;-75
2022/12/08 14:31:33;;;;;;;;;;;;;;;;;;5036489;28;20392;-75
2022/12/08 14:34:00;;;;;;;;;;;;;;;;;;5051513;28;19924;-75
2022/12/08 14:36:28;;;;;;;;;;;;;;;;;;5047955;28;19968;-75
2022/12/08 14:38:55;;;;;;;;;;;;;;;;;;5031175;28;20439;-74
2022/12/08 14:41:25;;;;;;;;;;;;;;;;;;5031225;28;20008;-76
2022/12/08 14:43:58;;;;;;;;;;;;;;;;;;5031512;28;20346;-74
2022/12/08 14:46:24;;;;;;;;;;;;;;;;;;5033511;28;19925;-75
2022/12/08 14:48:52;;;;;;;;;;;;;;;;;;5051265;28;20012;-75
2022/12/08 14:51:22;;;;;;;;;;;;;;;;;;5050311;28;19931;-73
2022/12/08 14:53:54;;;;;;;;;;;;;;;;;;5050955;28;20337;-74
2022/12/08 14:56:22;;;;;;;;;;;;;;;;;;5050194;28;20418;-75
2022/12/08 14:58:49;;;;;;;;;;;;;;;;;;5046193;28;19986;-75
2022/12/08 15:01:17;;;;;;;;;;;;;;;;;;5044663;28;19925;-74
2022/12/08 15:03:44;;;;;;;;;;;;;;;;;;5052927;28;20435;-75
2022/12/08 15:06:11;;;;;;;;;;;;;;;;;;5030295;23;19953;-78
2022/12/08 15:08:51;;;;;;;;;;;;;;;;;;4995219;28;20574;-80
2022/12/08 15:11:31;;;;;;;;;;;;;;;;;;4996722;28;19930;-79
2022/12/08 15:13:58;;;;;;;;;;;;;;;;;;4995273;28;19973;-80
2022/12/08 15:16:26;;;;;;;;;;;;;;;;;;4994465;28;20418;-78
2022/12/08 15:19:01;;;;;;;;;;;;;;;;;;4995420;28;19933;-79
2022/12/08 15:21:28;;;;;;;;;;;;;;;;;;4996509;28;19926;-79
2022/12/08 15:23:55;;;;;;;;;;;;;;;;;;4995341;28;20293;-79
2022/12/08 15:26:23;;;;;;;;;;;;;;;;;;4995818;28;19965;-79
2022/12/08 15:28:51;;;;;;;;;;;;;;;;;;4995230;28;19926;-79
2022/12/08 15:31:18;;;;;;;;;;;;;;;;;;4995074;28;19930;-79
2022/12/08 15:33:44;;;;;;;;;;;;;;;;;;4997329;28;19977;-79
2022/12/08 15:36:11;;;;;;;;;;;;;;;;;;4997970;28;19929;-79
2022/12/08 15:38:37;;;;;;;;;;;;;;;;;;4979271;28;19976;-79
2022/12/08 15:41:04;;;;;;;;;;;;;;;;;;4982742;28;19956;-78
2022/12/08 15:43:31;;;;;;;;;;;;;;;;;;4999505;28;19992;-77
2022/12/08 15:45:59;;;;;;;;;;;;;;;;;;5000835;28;20415;-78
2022/12/08 15:48:27;;;;;;;;;;;;;;;;;;5006441;28;19976;-79
2022/12/08 15:50:54;;;;;;;;;;;;;;;;;;5006634;28;19945;-79
2022/12/08 15:53:21;;;;;;;;;;;;;;;;;;5003887;28;20001;-78
2022/12/08 15:55:48;;;;;;;;;;;;;;;;;;4996947;28;19964;-77
2022/12/08 15:58:18;;;;;;;;;;;;;;;;;;4999110;28;19965;-80
2022/12/08 16:00:45;;;;;;;;;;;;;;;;;;5000818;28;19980;-79
2022/12/08 16:03:20;;;;;;;;;;;;;;;;;;5001143;28;19925;-79
2022/12/08 16:05:50;;;;;;;;;;;;;;;;;;5001347;28;20397;-79
2022/12/08 16:08:16;;;;;;;;;;;;;;;;;;5005647;28;19968;-80
2022/12/08 16:10:43;;;;;;;;;;;;;;;;;;5002143;28;19970;-79
2022/12/08 16:15:56;;;;;;;;;;;;;;;;;;5002233;28;20019;-79
2022/12/08 16:18:26;;;;;;;;;;;;;;;;;;4996664;28;19989;-79
2022/12/08 16:20:53;;;;;;;;;;;;;;;;;;4994946;28;19980;-81
2022/12/08 16:23:19;;;;;;;;;;;;;;;;;;4994823;28;20025;-78
2022/12/08 16:25:46;;;;;;;;;;;;;;;;;;4983011;28;19929;-79
2022/12/08 16:28:12;;;;;;;;;;;;;;;;;;4981072;28;19933;-79
2022/12/08 16:30:39;;;;;;;;;;;;;;;;;;4988286;28;20001;-78
2022/12/08 16:33:06;;;;;;;;;;;;;;;;;;4995113;28;19940;-79
2022/12/08 16:35:34;;;;;;;;;;;;;;;;;;4996636;28;19926;-79
2022/12/08 16:38:00;;;;;;;;;;;;;;;;;;4998257;28;20320;-79
2022/12/08 16:40:27;;;;;;;;;;;;;;;;;;5002978;28;19965;-77
2022/12/08 16:42:52;;;;;;;;;;;;;;;;;;4999051;28;20665;-78
2022/12/08 16:45:20;;;;;;;;;;;;;;;;;;4995866;28;19926;-78
2022/12/08 16:47:48;;;;;;;;;;;;;;;;;;4995328;28;19933;-79
2022/12/08 16:50:15;;;;;;;;;;;;;;;;;;4984542;28;19950;-76
2022/12/08 16:52:43;;;;;;;;;;;;;;;;;;4995560;28;19969;-78
2022/12/08 16:55:10;;;;;;;;;;;;;;;;;;4994950;28;19961;-77
2022/12/08 16:57:37;;;;;;;;;;;;;;;;;;4992709;28;19937;-79
2022/12/08 17:00:04;;;;;;;;;;;;;;;;;;4993953;28;20026;-79
2022/12/08 17:02:31;;;;;;;;;;;;;;;;;;4993195;28;19925;-78